Current Conditions
Snow
Conditions



Pressure
993.92 (hPa) - 29.35 (inHG)
Visibility

4.0 (km) - 2.5 (miles)
   Temperature
-2  °C
Temperature
-3  °C
Dewpoint
93  %
 Humidity
   Wind Speed
6.3  m/s
14  mph
23  km/h
12  kts
   Wind Direction
N
45°
E
90°
135°
S
180°
225°
W
270°
315°
 120°

East South
East
   Airport Data
EFHK
Helsinki Vantaa Airport
Metar :EFHK 212220Z 12012KT 4000 -SN OVC004 M02/M03 Q0994 TEMPO 2000
Fri 22nd January 00:20 am
   Raw Metar Info
Raw METAR is the most common format in the world for the transmission of observational weather data. It is highly standardized through the International Civil Aviation Organization (ICAO), which allows it to be understood throughout most of the world.
   API Info
Data Provided by
https://www.checkwx.com/weather/EFHK

Aviation Weather providing METAR, TAF, AIRMET, SIGMET and OUTLOOK Weather Reports
   © Info
CSS/SVG/PHP scripts were developed by weather34.com for use in the weather34 template © 2015-2021

Guide Info provided by Metar-Wikipedia